KTUS

Tucson International Airport

Tucson, Arizona, USA
KTUS 251728Z 2518/2618 20006KT P6SM SCT120 FM252000 29009KT P6SM SCT100 FM260400 14006KT P6SM SCT120
Issued Valid From Valid To
Sep-25 @ 17:28 UTC
(15 minutes ago)
Sep-25 @ 18:00 UTC
(in 17 minutes)
Sep-26 @ 18:00 UTC
(in 24 hours)
Sep-25 @ 18:00 to Sep-25 @ 20:00
KTUS 251728Z 2518/2618 20006KT P6SM SCT120
Wind Visibility Clouds
200° at 6 knots Greater than 6 miles
  • Scattered at 12,000' AGL
From Sep-25 @ 20:00 to Sep-26 @ 04:00
FM252000 29009KT P6SM SCT100
Wind Visibility Clouds
290° at 9 knots Greater than 6 miles
  • Scattered at 10,000' AGL
From Sep-26 @ 04:00 to Sep-26 @ 18:00
FM260400 14006KT P6SM SCT120
Wind Visibility Clouds
140° at 6 knots Greater than 6 miles
  • Scattered at 12,000' AGL
KTUS 251728Z 2518/2618 20006KT P6SM SCT120 FM252000 29009KT P6SM SCT100 FM260400 14006KT P6SM SCT120
Issued Sep-25 @ 17:28 UTC
(15 minutes ago)
Valid From Sep-25 @ 18:00 UTC
(in 17 minutes)
Valid To Sep-26 @ 18:00 UTC
(in 24 hours)
Sep-25 @ 18:00 - Sep-25 @ 20:00
Wind Visibility
200° at 6 knots Greater than 6 miles
Clouds
  • Scattered at 12,000' AGL
From Sep-25 @ 20:00 - Sep-26 @ 04:00
Wind Visibility
290° at 9 knots Greater than 6 miles
Clouds
  • Scattered at 10,000' AGL
From Sep-26 @ 04:00 - Sep-26 @ 18:00
Wind Visibility
140° at 6 knots Greater than 6 miles
Clouds
  • Scattered at 12,000' AGL